createdAt,value
2019-04-25T00:01:49.725Z,63.28
2019-04-25T00:04:21.531Z,64.37
2019-04-25T00:06:52.156Z,63.95
2019-04-25T00:09:23.626Z,64.11
2019-04-25T00:11:53.283Z,65.17
2019-04-25T00:14:23.783Z,65.02
2019-04-25T00:16:54.841Z,64.93
2019-04-25T00:19:24.565Z,65.02
2019-04-25T00:21:58.735Z,64.81
2019-04-25T00:24:39.604Z,66.00
2019-04-25T00:27:09.597Z,65.96
2019-04-25T00:29:39.301Z,66.59
2019-04-25T00:32:09.054Z,67.29
2019-04-25T00:34:38.778Z,67.59
2019-04-25T00:37:09.372Z,67.58
2019-04-25T00:39:38.995Z,67.87
2019-04-25T00:42:08.653Z,68.25
2019-04-25T00:44:38.339Z,67.90
2019-04-25T00:47:08.080Z,67.34
2019-04-25T00:49:37.781Z,67.65
2019-04-25T00:52:07.449Z,67.60
2019-04-25T00:54:37.070Z,67.28
2019-04-25T00:57:06.689Z,66.91
2019-04-25T00:59:37.977Z,67.09
2019-04-25T01:02:21.401Z,66.97
2019-04-25T01:04:52.090Z,67.09
2019-04-25T01:07:23.945Z,66.91
2019-04-25T01:09:54.556Z,67.33
2019-04-25T01:12:24.611Z,67.30
2019-04-25T01:14:54.764Z,67.17
2019-04-25T01:17:25.003Z,67.50
2019-04-25T01:19:56.927Z,67.67
2019-04-25T01:22:25.967Z,67.71
2019-04-25T01:24:56.076Z,67.80
2019-04-25T01:27:25.787Z,68.31
2019-04-25T01:29:56.345Z,68.71
2019-04-25T01:32:30.561Z,68.57
2019-04-25T01:35:01.856Z,68.57
2019-04-25T01:37:34.078Z,69.35
2019-04-25T01:40:25.224Z,69.29
2019-04-25T01:43:03.739Z,69.09
2019-04-25T01:45:35.016Z,69.44
2019-04-25T01:48:05.789Z,69.67
2019-04-25T01:50:35.409Z,70.11
2019-04-25T01:53:05.032Z,70.18
2019-04-25T01:55:34.680Z,70.06
2019-04-25T01:58:04.292Z,69.86
2019-04-25T02:00:35.597Z,70.10
2019-04-25T02:03:05.484Z,70.21
2019-04-25T02:05:35.218Z,70.19
2019-04-25T02:08:06.935Z,70.30
2019-04-25T02:10:36.326Z,70.36
2019-04-25T02:13:07.652Z,70.42
2019-04-25T02:15:37.457Z,70.42
2019-04-25T02:18:07.076Z,70.27
2019-04-25T02:20:36.765Z,70.52
2019-04-25T02:23:06.409Z,70.23
2019-04-25T02:25:36.025Z,70.28
2019-04-25T02:28:05.802Z,70.21
2019-04-25T02:30:35.860Z,70.41
2019-04-25T02:33:08.565Z,70.41
2019-04-25T02:35:37.338Z,70.34
2019-04-25T02:38:08.810Z,70.39
2019-04-25T02:40:38.312Z,70.39
2019-04-25T02:43:08.385Z,70.60
2019-04-25T02:45:40.105Z,70.56
2019-04-25T02:48:27.440Z,70.79
2019-04-25T02:51:07.715Z,70.78
2019-04-25T02:53:39.130Z,71.41
2019-04-25T02:56:27.638Z,71.31
2019-04-25T02:58:41.470Z,71.60
2019-04-25T03:01:19.429Z,71.66
2019-04-25T03:03:44.922Z,71.71
2019-04-25T03:06:15.321Z,71.89
2019-04-25T03:08:45.331Z,71.98
2019-04-25T03:11:15.352Z,71.86
2019-04-25T03:13:45.181Z,72.32
2019-04-25T03:16:14.809Z,72.55
2019-04-25T03:18:58.925Z,72.46
2019-04-25T03:21:30.671Z,72.30
2019-04-25T03:24:01.440Z,72.40
2019-04-25T03:26:39.678Z,72.49
2019-04-25T03:29:04.659Z,72.51
2019-04-25T03:31:34.862Z,72.57
2019-04-25T03:34:09.795Z,72.63
2019-04-25T03:36:36.321Z,72.62
2019-04-25T03:39:08.678Z,72.48
2019-04-25T03:41:38.385Z,72.46
2019-04-25T03:44:08.055Z,72.41
2019-04-25T03:46:37.669Z,72.35
2019-04-25T03:49:07.609Z,72.31
2019-04-25T03:51:37.416Z,72.42
2019-04-25T03:54:08.513Z,72.36
2019-04-25T03:56:49.627Z,72.46
2019-04-25T03:59:10.577Z,72.49
2019-04-25T04:01:40.306Z,72.55
2019-04-25T04:04:09.922Z,72.49
2019-04-25T04:06:39.571Z,72.57
2019-04-25T04:09:09.820Z,72.61
2019-04-25T04:11:39.822Z,72.62
2019-04-25T04:14:10.295Z,72.57
2019-04-25T04:16:41.980Z,72.59
2019-04-25T04:19:11.673Z,72.53
2019-04-25T04:21:45.690Z,72.59
2019-04-25T04:24:16.947Z,72.45
2019-04-25T04:26:48.303Z,72.34
2019-04-25T04:29:17.921Z,72.25
2019-04-25T04:31:47.642Z,72.21
2019-04-25T04:34:17.263Z,72.25
2019-04-25T04:36:46.916Z,72.14
2019-04-25T04:39:17.711Z,72.20
2019-04-25T04:41:47.968Z,72.07
2019-04-25T04:44:18.153Z,72.04
2019-04-25T04:46:47.933Z,71.99
2019-04-25T04:49:18.325Z,71.85
2019-04-25T04:51:48.294Z,71.51
2019-04-25T04:54:17.925Z,71.28
2019-04-25T04:56:47.643Z,70.93
2019-04-25T04:59:17.268Z,70.66
2019-04-25T05:02:03.631Z,70.36
2019-04-25T05:07:40.009Z,69.57
2019-04-25T05:10:10.442Z,68.87
2019-04-25T05:12:41.072Z,68.50
2019-04-25T05:15:14.845Z,68.19
2019-04-25T05:17:44.021Z,67.74
2019-04-25T05:20:15.971Z,67.20
2019-04-25T05:22:45.148Z,66.67
2019-04-25T05:25:16.343Z,66.15
2019-04-25T05:27:59.575Z,65.59
2019-04-25T05:30:21.173Z,64.95
2019-04-25T05:32:50.839Z,64.49
2019-04-25T05:35:20.462Z,63.58
2019-04-25T05:37:50.127Z,63.27
2019-04-25T05:40:20.153Z,63.13
2019-04-25T05:42:51.586Z,62.62
2019-04-25T05:45:23.818Z,62.07
2019-04-25T05:47:54.383Z,61.46
2019-04-25T05:50:25.088Z,60.80
2019-04-25T05:52:55.138Z,59.95
2019-04-25T05:55:25.227Z,59.70
2019-04-25T05:57:55.198Z,59.07
2019-04-25T06:00:25.999Z,58.42
2019-04-25T06:02:56.034Z,57.38
2019-04-25T06:05:26.485Z,57.19
2019-04-25T06:07:56.897Z,56.16
2019-04-25T06:10:34.724Z,56.16
2019-04-25T06:13:15.164Z,55.83
2019-04-25T06:15:46.475Z,54.90
2019-04-25T06:18:17.773Z,54.27
2019-04-25T06:20:47.467Z,53.59
2019-04-25T06:23:25.583Z,52.31
2019-04-25T06:25:55.536Z,52.09
2019-04-25T06:28:26.829Z,50.75
2019-04-25T06:30:56.522Z,50.30
2019-04-25T06:33:27.191Z,50.11
2019-04-25T06:35:57.049Z,49.48
2019-04-25T06:38:27.536Z,48.52
2019-04-25T06:40:58.078Z,47.95
2019-04-25T06:43:28.521Z,47.21
2019-04-25T06:46:18.053Z,46.63
2019-04-25T06:48:49.357Z,44.34
2019-04-25T06:51:18.988Z,44.56
2019-04-25T06:53:48.661Z,44.42
2019-04-25T06:56:18.349Z,44.40
2019-04-25T06:58:48.007Z,44.18
2019-04-25T07:01:17.641Z,43.98
2019-04-25T07:03:47.299Z,43.66
2019-04-25T07:06:16.923Z,43.02
2019-04-25T07:08:46.599Z,43.13
2019-04-25T07:11:16.259Z,42.06
2019-04-25T07:13:46.019Z,41.57
2019-04-25T07:16:15.818Z,40.66
2019-04-25T07:18:45.506Z,40.49
2019-04-25T07:21:16.096Z,40.21
2019-04-25T07:23:46.356Z,39.20
2019-04-25T07:26:19.493Z,38.72
2019-04-25T07:31:48.050Z,38.27
2019-04-25T07:34:19.355Z,37.85
2019-04-25T07:36:50.746Z,37.07
2019-04-25T07:39:20.669Z,37.18
2019-04-25T07:41:50.454Z,35.99
2019-04-25T07:44:24.622Z,36.16
2019-04-25T07:46:51.639Z,35.71
2019-04-25T07:49:21.374Z,35.48
2019-04-25T07:51:51.079Z,34.59
2019-04-25T07:54:20.772Z,34.94
2019-04-25T07:56:50.441Z,34.55
2019-04-25T07:59:21.512Z,34.74
2019-04-25T08:01:53.953Z,34.43
2019-04-25T08:04:24.885Z,33.56
2019-04-25T08:06:57.049Z,33.52
2019-04-25T08:09:27.507Z,33.39
2019-04-25T08:11:57.886Z,33.33
2019-04-25T08:14:33.892Z,32.98
2019-04-25T08:17:05.087Z,32.65
2019-04-25T08:19:35.594Z,32.34
2019-04-25T08:22:05.313Z,31.73
2019-04-25T08:24:37.124Z,31.37
2019-04-25T08:27:07.147Z,31.22
2019-04-25T08:29:39.427Z,31.36
2019-04-25T08:32:08.158Z,30.26
2019-04-25T08:34:38.598Z,28.91
2019-04-25T08:37:18.071Z,29.36
2019-04-25T08:39:40.146Z,29.68
2019-04-25T08:42:09.769Z,29.02
2019-04-25T08:44:39.511Z,27.77
2019-04-25T08:47:09.218Z,27.92
2019-04-25T08:49:40.518Z,28.44
2019-04-25T08:52:10.136Z,27.84
2019-04-25T08:54:57.607Z,28.13
2019-04-25T08:57:45.413Z,27.88
2019-04-25T09:00:19.746Z,25.98
2019-04-25T09:02:54.473Z,26.01
2019-04-25T09:05:38.857Z,26.02
2019-04-25T09:08:08.740Z,26.38
2019-04-25T09:10:39.973Z,24.39
2019-04-25T09:13:09.814Z,23.92
2019-04-25T09:15:39.553Z,24.14
2019-04-25T09:18:09.294Z,23.92
2019-04-25T09:20:40.845Z,22.83
2019-04-25T09:23:10.357Z,23.52
2019-04-25T09:25:40.678Z,23.07
2019-04-25T09:28:10.932Z,23.41
2019-04-25T09:30:40.799Z,22.50
2019-04-25T09:33:10.517Z,22.10
2019-04-25T09:35:40.204Z,22.62
2019-04-25T09:38:10.070Z,21.71
2019-04-25T09:40:39.720Z,22.10
2019-04-25T09:43:09.595Z,22.20
2019-04-25T09:45:41.626Z,21.51
2019-04-25T09:48:23.247Z,21.66
2019-04-25T09:51:07.398Z,21.41
2019-04-25T09:53:44.730Z,21.10
2019-04-25T09:56:11.566Z,21.36
2019-04-25T09:58:57.857Z,20.51
2019-04-25T10:01:27.947Z,20.14
2019-04-25T10:03:57.605Z,20.96
2019-04-25T10:06:27.442Z,20.74
2019-04-25T10:08:57.132Z,20.36
2019-04-25T10:11:26.857Z,20.80
2019-04-25T10:14:13.529Z,20.30
2019-04-25T10:16:44.498Z,20.88
2019-04-25T10:19:14.745Z,21.22
2019-04-25T10:21:45.193Z,19.79
2019-04-25T10:24:15.133Z,16.74
2019-04-25T10:26:45.180Z,17.41
2019-04-25T10:29:16.026Z,18.97
2019-04-25T10:31:46.934Z,18.99
2019-04-25T10:34:16.581Z,18.91
2019-04-25T10:36:47.569Z,19.28
2019-04-25T10:39:17.331Z,17.59
2019-04-25T10:41:48.122Z,17.55
2019-04-25T10:44:18.199Z,18.31
2019-04-25T10:46:48.499Z,17.04
2019-04-25T10:49:18.231Z,16.46
2019-04-25T10:51:48.052Z,16.27
2019-04-25T10:54:19.030Z,16.30
2019-04-25T10:56:48.647Z,16.28
2019-04-25T10:59:18.304Z,16.59
2019-04-25T11:01:48.913Z,16.47
2019-04-25T11:04:20.542Z,15.88
2019-04-25T11:06:50.179Z,15.96
2019-04-25T11:09:21.545Z,15.41
2019-04-25T11:11:52.350Z,15.69
2019-04-25T11:14:23.805Z,15.88
2019-04-25T11:16:55.217Z,15.79
2019-04-25T11:19:24.992Z,15.54
2019-04-25T11:21:54.647Z,14.10
2019-04-25T11:24:24.266Z,14.10
2019-04-25T11:26:55.238Z,13.17
2019-04-25T11:29:25.542Z,13.58
2019-04-25T11:31:55.260Z,14.23
2019-04-25T11:34:24.957Z,13.04
2019-04-25T11:36:54.726Z,12.85
2019-04-25T11:39:37.939Z,12.85
2019-04-25T11:42:08.527Z,13.52
2019-04-25T11:44:38.813Z,13.19
2019-04-25T11:47:08.785Z,13.19
2019-04-25T11:49:38.827Z,14.09
2019-04-25T11:52:09.815Z,13.95
2019-04-25T11:54:39.469Z,13.79
2019-04-25T11:57:09.094Z,14.07
2019-04-25T11:59:40.096Z,14.00
2019-04-25T12:02:11.364Z,13.32
2019-04-25T12:04:46.223Z,12.93
2019-04-25T12:07:16.942Z,13.27
2019-04-25T12:09:47.090Z,13.68
2019-04-25T12:12:23.440Z,12.60
2019-04-25T12:14:55.414Z,13.06
2019-04-25T12:17:25.453Z,13.23
2019-04-25T12:19:56.183Z,13.95
2019-04-25T12:22:27.408Z,13.22
2019-04-25T12:24:57.105Z,13.98
2019-04-25T12:27:26.734Z,14.05
2019-04-25T12:29:57.285Z,14.04
2019-04-25T12:32:27.140Z,14.59
2019-04-25T12:34:56.784Z,14.56
2019-04-25T12:37:50.354Z,15.00
2019-04-25T12:40:20.063Z,15.16
2019-04-25T12:42:49.791Z,15.26
2019-04-25T12:45:21.095Z,15.42
2019-04-25T12:47:56.157Z,15.75
2019-04-25T12:50:24.733Z,16.04
2019-04-25T12:52:55.980Z,15.91
2019-04-25T12:55:25.885Z,15.76
2019-04-25T12:57:56.573Z,15.51
2019-04-25T13:00:29.580Z,15.93
2019-04-25T13:02:59.202Z,14.90
2019-04-25T13:05:28.902Z,14.73
2019-04-25T13:07:59.898Z,15.06
2019-04-25T13:10:30.166Z,14.99
2019-04-25T13:12:59.835Z,14.72
2019-04-25T13:15:29.759Z,14.83
2019-04-25T13:17:59.500Z,15.19
2019-04-25T13:20:29.193Z,15.31
2019-04-25T13:22:58.855Z,15.17
2019-04-25T13:25:29.720Z,15.36
2019-04-25T13:28:03.423Z,15.47
2019-04-25T13:30:34.353Z,16.30
2019-04-25T13:33:06.528Z,15.90
2019-04-25T13:35:38.048Z,16.15
2019-04-25T13:38:08.620Z,16.43
2019-04-25T13:40:38.504Z,16.83
2019-04-25T13:43:08.223Z,17.17
2019-04-25T13:45:37.959Z,16.84
2019-04-25T13:48:08.650Z,16.99
2019-04-25T13:50:39.789Z,16.66
2019-04-25T13:53:10.027Z,16.80
2019-04-25T13:55:40.598Z,17.14
2019-04-25T13:58:11.184Z,17.06
2019-04-25T14:00:41.907Z,16.92
2019-04-25T14:03:11.707Z,17.19
2019-04-25T14:05:41.542Z,16.91
2019-04-25T14:08:13.452Z,17.00
2019-04-25T14:10:47.317Z,17.11
2019-04-25T14:13:16.573Z,17.39
2019-04-25T14:15:47.894Z,17.48
2019-04-25T14:18:19.317Z,17.49
2019-04-25T14:20:50.630Z,17.48
2019-04-25T14:23:20.614Z,17.54
2019-04-25T14:25:51.365Z,17.42
2019-04-25T14:28:21.913Z,17.51
2019-04-25T14:30:51.904Z,17.71
2019-04-25T14:33:23.114Z,17.42
2019-04-25T14:35:53.342Z,17.50
2019-04-25T14:38:25.621Z,16.97
2019-04-25T14:40:55.924Z,17.02
2019-04-25T14:43:26.205Z,17.11
2019-04-25T14:45:56.527Z,17.47
2019-04-25T14:48:27.185Z,17.34
2019-04-25T14:50:57.397Z,17.38
2019-04-25T14:53:28.004Z,17.36
2019-04-25T14:56:05.179Z,17.36
2019-04-25T14:58:36.479Z,17.42
2019-04-25T15:01:06.271Z,17.72
2019-04-25T15:03:35.934Z,17.95
2019-04-25T15:06:05.722Z,17.83
2019-04-25T15:08:35.351Z,18.04
2019-04-25T15:11:05.578Z,17.66
2019-04-25T15:13:35.301Z,17.17
2019-04-25T15:16:05.048Z,16.98
2019-04-25T15:18:46.075Z,16.71
2019-04-25T15:21:06.880Z,16.31
2019-04-25T15:23:36.501Z,16.35
2019-04-25T15:26:07.651Z,16.55
2019-04-25T15:28:37.341Z,16.50
2019-04-25T15:31:07.065Z,16.01
2019-04-25T15:33:38.549Z,15.71
2019-04-25T15:36:09.839Z,14.97
2019-04-25T15:38:50.278Z,13.39
2019-04-25T15:41:25.121Z,12.76
2019-04-25T15:44:08.572Z,13.02
2019-04-25T15:46:42.415Z,14.30
2019-04-25T15:49:11.207Z,15.31
2019-04-25T15:51:40.466Z,15.88
2019-04-25T15:54:10.132Z,15.97
2019-04-25T15:56:39.840Z,16.32
2019-04-25T15:59:09.478Z,16.38
2019-04-25T16:01:39.164Z,16.04
2019-04-25T16:04:08.849Z,17.05
2019-04-25T16:06:38.581Z,16.89
2019-04-25T16:09:10.364Z,17.11
2019-04-25T16:11:40.549Z,16.99
2019-04-25T16:14:11.552Z,16.92
2019-04-25T16:16:41.302Z,16.32
2019-04-25T16:19:11.998Z,16.29
2019-04-25T16:21:42.213Z,16.70
2019-04-25T16:24:12.103Z,16.89
2019-04-25T16:26:42.481Z,16.93
2019-04-25T16:29:13.878Z,17.39
2019-04-25T16:31:43.627Z,17.56
2019-04-25T16:34:13.329Z,17.93
2019-04-25T16:36:43.031Z,18.45
2019-04-25T16:39:17.216Z,18.67
2019-04-25T16:41:48.152Z,19.26
2019-04-25T16:44:19.427Z,19.18
2019-04-25T16:46:49.234Z,19.32
2019-04-25T16:49:18.933Z,19.57
2019-04-25T16:51:48.589Z,19.94
2019-04-25T16:54:19.662Z,20.04
2019-04-25T16:56:49.432Z,20.40
2019-04-25T16:59:19.131Z,20.60
2019-04-25T17:01:49.103Z,20.91
2019-04-25T17:04:19.964Z,20.96
2019-04-25T17:06:49.957Z,21.22
2019-04-25T17:09:19.870Z,21.56
2019-04-25T17:11:49.488Z,21.75
2019-04-25T17:14:23.732Z,22.01
2019-04-25T17:16:55.044Z,22.23
2019-04-25T17:19:26.318Z,22.19
2019-04-25T17:21:56.042Z,22.45
2019-04-25T17:24:25.671Z,22.89
2019-04-25T17:26:55.443Z,23.08
2019-04-25T17:29:25.088Z,23.12
2019-04-25T17:31:59.371Z,23.48
2019-04-25T17:34:33.874Z,23.54
2019-04-25T17:37:17.459Z,23.71
2019-04-25T17:39:51.795Z,24.07
2019-04-25T17:42:21.423Z,24.51
2019-04-25T17:44:51.078Z,24.46
2019-04-25T17:47:20.708Z,24.75
2019-04-25T17:49:50.368Z,25.06
2019-04-25T17:52:19.977Z,25.21
2019-04-25T17:54:49.725Z,25.31
2019-04-25T17:57:19.350Z,25.59
2019-04-25T17:59:49.010Z,25.87
2019-04-25T18:02:18.716Z,25.84
2019-04-25T18:04:48.338Z,26.10
2019-04-25T18:07:17.998Z,26.19
2019-04-25T18:09:47.629Z,26.53
2019-04-25T18:12:17.358Z,26.62
2019-04-25T18:14:47.453Z,26.78
2019-04-25T18:17:17.187Z,27.00
2019-04-25T18:19:51.150Z,27.08
2019-04-25T18:22:28.207Z,27.33
2019-04-25T18:25:02.237Z,27.41
2019-04-25T18:27:33.615Z,27.55
2019-04-25T18:30:06.145Z,27.55
2019-04-25T18:32:37.306Z,27.92
2019-04-25T18:35:11.525Z,27.81
2019-04-25T18:37:45.734Z,27.93
2019-04-25T18:40:25.946Z,28.11
2019-04-25T18:42:57.285Z,28.21
2019-04-25T18:45:28.658Z,28.33
2019-04-25T18:47:58.281Z,28.22
2019-04-25T18:50:29.576Z,28.38
2019-04-25T18:53:06.622Z,28.52
2019-04-25T18:55:43.901Z,28.49
2019-04-25T18:58:15.170Z,28.56
2019-04-25T19:00:46.473Z,28.72
2019-04-25T19:03:26.589Z,28.75
2019-04-25T19:06:00.438Z,28.81
2019-04-25T19:08:30.136Z,28.72
2019-04-25T19:10:59.932Z,28.96
2019-04-25T19:13:29.682Z,28.93
2019-04-25T19:15:59.393Z,28.98
2019-04-25T19:18:29.040Z,29.16
2019-04-25T19:20:59.726Z,29.33
2019-04-25T19:23:29.458Z,29.25
2019-04-25T19:25:59.092Z,29.24
2019-04-25T19:28:28.759Z,29.23
2019-04-25T19:30:58.384Z,29.29
2019-04-25T19:33:35.651Z,29.51
2019-04-25T19:35:59.427Z,29.66
2019-04-25T19:38:29.176Z,29.49
2019-04-25T19:41:03.264Z,29.57
2019-04-25T19:43:34.648Z,29.72
2019-04-25T19:46:04.277Z,29.51
2019-04-25T19:48:34.021Z,29.97
2019-04-25T19:51:03.645Z,29.81
2019-04-25T19:53:33.339Z,29.90
2019-04-25T19:56:02.996Z,30.10
2019-04-25T19:58:32.719Z,29.98
2019-04-25T20:01:02.451Z,29.92
2019-04-25T20:03:49.423Z,29.85
2019-04-25T20:06:28.792Z,30.16
2019-04-25T20:09:09.238Z,30.26
2019-04-25T20:11:49.348Z,30.48
2019-04-25T20:14:19.225Z,30.29
2019-04-25T20:16:49.643Z,30.38
2019-04-25T20:19:19.462Z,30.60
2019-04-25T20:21:49.968Z,30.61
2019-04-25T20:24:19.791Z,30.65
2019-04-25T20:26:50.391Z,30.68
2019-04-25T20:29:20.357Z,30.83
2019-04-25T20:31:50.666Z,30.86
2019-04-25T20:34:20.442Z,31.15
2019-04-25T20:36:50.066Z,31.17
2019-04-25T20:39:19.754Z,31.39
2019-04-25T20:41:49.761Z,31.34
2019-04-25T20:44:19.640Z,31.49
2019-04-25T20:46:49.295Z,31.65
2019-04-25T20:49:18.950Z,31.94
2019-04-25T20:51:48.637Z,31.95
2019-04-25T20:54:18.269Z,32.08
2019-04-25T20:56:49.121Z,32.13
2019-04-25T20:59:19.232Z,32.23
2019-04-25T21:01:49.729Z,32.39
2019-04-25T21:04:37.661Z,32.50
2019-04-25T21:07:07.457Z,32.52
2019-04-25T21:09:37.155Z,32.68
2019-04-25T21:12:06.778Z,32.79
2019-04-25T21:14:40.547Z,32.89
2019-04-25T21:17:11.842Z,33.42
2019-04-25T21:19:43.102Z,34.19
2019-04-25T21:22:12.757Z,34.57
2019-04-25T21:24:43.558Z,34.78
2019-04-25T21:27:13.283Z,34.32
2019-04-25T21:29:42.898Z,33.92
2019-04-25T21:32:12.608Z,33.62
2019-04-25T21:34:42.261Z,33.68
2019-04-25T21:37:12.536Z,33.44
2019-04-25T21:39:52.243Z,33.19
2019-04-25T21:42:23.370Z,33.05
2019-04-25T21:44:54.089Z,33.04
2019-04-25T21:47:24.006Z,33.05
2019-04-25T21:49:54.356Z,32.96
2019-04-25T21:52:24.498Z,32.79
2019-04-25T21:54:55.580Z,32.62
2019-04-25T21:57:25.708Z,32.52
2019-04-25T22:00:03.063Z,32.52
2019-04-25T22:02:28.527Z,32.64
2019-04-25T22:04:58.737Z,32.60
2019-04-25T22:07:28.949Z,32.73
2019-04-25T22:09:59.437Z,32.64
2019-04-25T22:12:29.379Z,32.64
2019-04-25T22:14:59.322Z,32.62
2019-04-25T22:17:29.410Z,32.76
2019-04-25T22:19:59.824Z,32.77
2019-04-25T22:22:30.022Z,32.80
2019-04-25T22:25:00.470Z,32.76
2019-04-25T22:27:33.096Z,32.88
2019-04-25T22:30:03.633Z,33.17
2019-04-25T22:32:51.894Z,33.35
2019-04-25T22:35:32.106Z,33.39
2019-04-25T22:38:04.284Z,33.49
2019-04-25T22:40:34.155Z,33.66
2019-04-25T22:43:04.992Z,33.78
2019-04-25T22:45:36.905Z,33.85
2019-04-25T22:48:06.722Z,33.83
2019-04-25T22:50:36.702Z,33.93
2019-04-25T22:53:06.361Z,33.96
2019-04-25T22:55:36.253Z,33.96
2019-04-25T22:58:05.880Z,33.91
2019-04-25T23:00:37.189Z,33.93
2019-04-25T23:03:09.346Z,34.07
2019-04-25T23:05:52.569Z,34.09
2019-04-25T23:08:22.622Z,34.17
2019-04-25T23:10:52.229Z,34.42
2019-04-25T23:13:21.851Z,34.53
2019-04-25T23:15:51.506Z,34.68
2019-04-25T23:18:21.664Z,35.06
2019-04-25T23:20:51.327Z,35.39
2019-04-25T23:23:21.395Z,35.23
2019-04-25T23:26:05.188Z,35.34
2019-04-25T23:28:40.533Z,35.91
2019-04-25T23:31:14.688Z,35.79
2019-04-25T23:33:44.920Z,36.22
2019-04-25T23:36:15.395Z,36.36
2019-04-25T23:38:45.218Z,35.96
2019-04-25T23:41:15.710Z,35.88
2019-04-25T23:43:45.608Z,35.93
2019-04-25T23:46:16.256Z,36.14
2019-04-25T23:48:46.040Z,36.65
2019-04-25T23:51:15.708Z,36.64
2019-04-25T23:53:45.511Z,36.41
2019-04-25T23:56:15.244Z,36.19
2019-04-25T23:58:45.368Z,35.82
